sensor_id;sensor_type;location;lat;lon;timestamp;P1;durP1;ratioP1;P2;durP2;ratioP2
3767;SDS011;1899;49.966;7.106;2022-09-09T04:00:31;5.33;;;1.70;;
3767;SDS011;1899;49.966;7.106;2022-09-09T04:02:57;3.33;;;1.70;;
3767;SDS011;1899;49.966;7.106;2022-09-09T04:05:22;5.10;;;2.10;;
3767;SDS011;1899;49.966;7.106;2022-09-09T04:07:48;4.80;;;2.30;;
3767;SDS011;1899;49.966;7.106;2022-09-09T04:10:13;7.63;;;2.97;;
3767;SDS011;1899;49.966;7.106;2022-09-09T04:12:38;4.43;;;2.80;;
3767;SDS011;1899;49.966;7.106;2022-09-09T04:15:03;6.73;;;3.30;;
3767;SDS011;1899;49.966;7.106;2022-09-09T04:17:29;6.50;;;3.30;;
3767;SDS011;1899;49.966;7.106;2022-09-09T04:19:54;6.40;;;3.07;;
3767;SDS011;1899;49.966;7.106;2022-09-09T04:22:19;4.90;;;2.10;;
3767;SDS011;1899;49.966;7.106;2022-09-09T04:24:44;7.03;;;2.90;;
3767;SDS011;1899;49.966;7.106;2022-09-09T04:27:10;5.47;;;2.00;;
3767;SDS011;1899;49.966;7.106;2022-09-09T04:29:35;3.97;;;2.60;;
3767;SDS011;1899;49.966;7.106;2022-09-09T04:32:00;5.50;;;2.70;;
3767;SDS011;1899;49.966;7.106;2022-09-09T04:34:25;8.77;;;3.67;;
3767;SDS011;1899;49.966;7.106;2022-09-09T04:36:51;3.40;;;2.50;;
3767;SDS011;1899;49.966;7.106;2022-09-09T04:39:17;8.70;;;3.88;;
3767;SDS011;1899;49.966;7.106;2022-09-09T04:41:42;6.90;;;3.83;;
3767;SDS011;1899;49.966;7.106;2022-09-09T04:44:07;4.60;;;2.17;;
3767;SDS011;1899;49.966;7.106;2022-09-09T04:46:32;5.77;;;2.97;;
3767;SDS011;1899;49.966;7.106;2022-09-09T04:48:59;4.05;;;2.00;;
3767;SDS011;1899;49.966;7.106;2022-09-09T04:51:24;7.47;;;3.00;;
3767;SDS011;1899;49.966;7.106;2022-09-09T04:53:50;4.40;;;2.78;;
3767;SDS011;1899;49.966;7.106;2022-09-09T04:56:16;2.30;;;2.10;;
3767;SDS011;1899;49.966;7.106;2022-09-09T04:58:42;3.88;;;2.30;;
3767;SDS011;1899;49.966;7.106;2022-09-09T05:01:09;5.22;;;2.60;;
3767;SDS011;1899;49.966;7.106;2022-09-09T05:03:34;5.32;;;2.70;;
3767;SDS011;1899;49.966;7.106;2022-09-09T05:06:09;7.80;;;3.03;;
3767;SDS011;1899;49.966;7.106;2022-09-09T05:08:36;3.08;;;2.50;;
3767;SDS011;1899;49.966;7.106;2022-09-09T05:11:02;5.50;;;2.30;;
3767;SDS011;1899;49.966;7.106;2022-09-09T05:13:28;10.10;;;4.53;;
3767;SDS011;1899;49.966;7.106;2022-09-09T05:15:54;9.77;;;2.77;;
3767;SDS011;1899;49.966;7.106;2022-09-09T05:18:19;6.00;;;2.33;;
3767;SDS011;1899;49.966;7.106;2022-09-09T05:20:45;7.20;;;3.25;;
3767;SDS011;1899;49.966;7.106;2022-09-09T05:23:10;7.30;;;3.20;;
3767;SDS011;1899;49.966;7.106;2022-09-09T05:25:38;5.60;;;2.10;;
3767;SDS011;1899;49.966;7.106;2022-09-09T05:28:03;8.37;;;2.73;;
3767;SDS011;1899;49.966;7.106;2022-09-09T05:30:28;7.87;;;3.40;;
3767;SDS011;1899;49.966;7.106;2022-09-09T05:32:57;12.10;;;3.87;;
3767;SDS011;1899;49.966;7.106;2022-09-09T05:35:22;15.07;;;4.00;;
3767;SDS011;1899;49.966;7.106;2022-09-09T05:37:48;7.23;;;3.50;;
3767;SDS011;1899;49.966;7.106;2022-09-09T05:40:13;8.33;;;4.00;;
3767;SDS011;1899;49.966;7.106;2022-09-09T05:42:38;10.20;;;4.93;;
3767;SDS011;1899;49.966;7.106;2022-09-09T05:45:04;8.55;;;3.47;;
3767;SDS011;1899;49.966;7.106;2022-09-09T05:47:30;9.27;;;4.30;;
3767;SDS011;1899;49.966;7.106;2022-09-09T05:49:55;9.53;;;4.10;;
3767;SDS011;1899;49.966;7.106;2022-09-09T05:52:20;6.20;;;2.70;;
3767;SDS011;1899;49.966;7.106;2022-09-09T05:54:46;5.73;;;2.83;;
3767;SDS011;1899;49.966;7.106;2022-09-09T05:57:11;8.18;;;2.90;;
3767;SDS011;1899;49.966;7.106;2022-09-09T05:59:36;7.13;;;2.77;;
3767;SDS011;1899;49.966;7.106;2022-09-09T06:02:02;5.43;;;2.40;;
3767;SDS011;1899;49.966;7.106;2022-09-09T06:04:27;10.40;;;3.40;;
3767;SDS011;1899;49.966;7.106;2022-09-09T06:06:52;8.38;;;3.35;;
3767;SDS011;1899;49.966;7.106;2022-09-09T06:09:18;9.07;;;2.97;;
3767;SDS011;1899;49.966;7.106;2022-09-09T06:11:43;10.83;;;2.73;;
3767;SDS011;1899;49.966;7.106;2022-09-09T06:14:08;7.73;;;2.50;;
3767;SDS011;1899;49.966;7.106;2022-09-09T06:16:34;5.73;;;2.70;;
3767;SDS011;1899;49.966;7.106;2022-09-09T06:19:00;8.83;;;3.00;;
3767;SDS011;1899;49.966;7.106;2022-09-09T06:21:27;13.20;;;3.90;;
3767;SDS011;1899;49.966;7.106;2022-09-09T06:23:52;11.10;;;4.10;;
3767;SDS011;1899;49.966;7.106;2022-09-09T06:26:19;8.57;;;3.38;;
3767;SDS011;1899;49.966;7.106;2022-09-09T06:28:45;7.88;;;3.55;;
3767;SDS011;1899;49.966;7.106;2022-09-09T06:31:11;6.18;;;2.63;;
3767;SDS011;1899;49.966;7.106;2022-09-09T06:33:37;6.57;;;2.63;;
3767;SDS011;1899;49.966;7.106;2022-09-09T06:36:06;10.98;;;3.90;;
3767;SDS011;1899;49.966;7.106;2022-09-09T06:38:32;7.93;;;3.58;;
3767;SDS011;1899;49.966;7.106;2022-09-09T06:40:58;5.17;;;3.27;;
3767;SDS011;1899;49.966;7.106;2022-09-09T06:43:24;6.82;;;3.25;;
3767;SDS011;1899;49.966;7.106;2022-09-09T06:46:11;7.30;;;2.50;;
3767;SDS011;1899;49.966;7.106;2022-09-09T06:48:35;4.72;;;2.28;;
3767;SDS011;1899;49.966;7.106;2022-09-09T06:53:26;6.07;;;2.60;;
3767;SDS011;1899;49.966;7.106;2022-09-09T06:55:52;5.17;;;2.20;;
3767;SDS011;1899;49.966;7.106;2022-09-09T06:58:17;7.90;;;3.47;;
3767;SDS011;1899;49.966;7.106;2022-09-09T07:00:43;7.00;;;2.60;;
3767;SDS011;1899;49.966;7.106;2022-09-09T07:03:09;8.53;;;2.80;;
3767;SDS011;1899;49.966;7.106;2022-09-09T07:05:34;6.43;;;2.10;;
3767;SDS011;1899;49.966;7.106;2022-09-09T07:08:00;5.50;;;2.00;;
3767;SDS011;1899;49.966;7.106;2022-09-09T07:10:25;7.50;;;2.15;;
3767;SDS011;1899;49.966;7.106;2022-09-09T07:12:51;5.13;;;1.70;;
3767;SDS011;1899;49.966;7.106;2022-09-09T07:15:17;4.95;;;1.75;;
3767;SDS011;1899;49.966;7.106;2022-09-09T07:17:43;4.85;;;2.00;;
3767;SDS011;1899;49.966;7.106;2022-09-09T07:20:09;6.60;;;1.92;;
3767;SDS011;1899;49.966;7.106;2022-09-09T07:22:34;6.60;;;2.10;;
3767;SDS011;1899;49.966;7.106;2022-09-09T07:24:59;5.73;;;2.63;;
3767;SDS011;1899;49.966;7.106;2022-09-09T07:27:24;7.87;;;2.27;;
3767;SDS011;1899;49.966;7.106;2022-09-09T07:29:50;6.30;;;2.28;;
3767;SDS011;1899;49.966;7.106;2022-09-09T07:32:15;8.40;;;2.50;;
3767;SDS011;1899;49.966;7.106;2022-09-09T07:34:42;5.68;;;2.20;;
3767;SDS011;1899;49.966;7.106;2022-09-09T07:37:07;4.90;;;1.60;;
3767;SDS011;1899;49.966;7.106;2022-09-09T07:39:36;6.43;;;1.70;;
3767;SDS011;1899;49.966;7.106;2022-09-09T07:42:02;5.90;;;2.00;;
3767;SDS011;1899;49.966;7.106;2022-09-09T07:44:27;7.87;;;1.70;;
3767;SDS011;1899;49.966;7.106;2022-09-09T07:46:52;4.70;;;1.70;;
3767;SDS011;1899;49.966;7.106;2022-09-09T07:49:18;6.80;;;1.50;;
3767;SDS011;1899;49.966;7.106;2022-09-09T07:51:44;8.03;;;2.37;;
3767;SDS011;1899;49.966;7.106;2022-09-09T07:54:11;3.40;;;1.48;;
3767;SDS011;1899;49.966;7.106;2022-09-09T07:56:37;4.88;;;1.65;;
3767;SDS011;1899;49.966;7.106;2022-09-09T07:59:02;5.07;;;1.80;;
3767;SDS011;1899;49.966;7.106;2022-09-09T08:01:33;4.82;;;1.60;;
3767;SDS011;1899;49.966;7.106;2022-09-09T08:04:01;6.60;;;2.30;;
3767;SDS011;1899;49.966;7.106;2022-09-09T08:06:27;5.63;;;1.80;;
3767;SDS011;1899;49.966;7.106;2022-09-09T08:08:53;3.70;;;1.60;;
3767;SDS011;1899;49.966;7.106;2022-09-09T08:11:20;7.47;;;2.20;;
3767;SDS011;1899;49.966;7.106;2022-09-09T08:13:45;4.45;;;1.60;;
3767;SDS011;1899;49.966;7.106;2022-09-09T08:16:12;3.63;;;1.40;;
3767;SDS011;1899;49.966;7.106;2022-09-09T08:18:38;5.40;;;2.03;;
3767;SDS011;1899;49.966;7.106;2022-09-09T08:21:04;3.72;;;1.23;;
3767;SDS011;1899;49.966;7.106;2022-09-09T08:23:30;4.80;;;1.63;;
3767;SDS011;1899;49.966;7.106;2022-09-09T08:26:02;7.00;;;1.90;;
3767;SDS011;1899;49.966;7.106;2022-09-09T08:28:27;5.88;;;1.65;;
3767;SDS011;1899;49.966;7.106;2022-09-09T08:30:52;4.63;;;1.97;;
3767;SDS011;1899;49.966;7.106;2022-09-09T08:33:18;6.37;;;1.50;;
3767;SDS011;1899;49.966;7.106;2022-09-09T08:35:49;6.83;;;1.90;;
3767;SDS011;1899;49.966;7.106;2022-09-09T08:38:14;6.22;;;1.73;;
3767;SDS011;1899;49.966;7.106;2022-09-09T08:40:40;2.35;;;1.10;;
3767;SDS011;1899;49.966;7.106;2022-09-09T08:43:09;5.60;;;1.52;;
3767;SDS011;1899;49.966;7.106;2022-09-09T08:45:37;4.97;;;1.58;;
3767;SDS011;1899;49.966;7.106;2022-09-09T08:50:39;5.65;;;1.90;;
3767;SDS011;1899;49.966;7.106;2022-09-09T08:55:45;4.68;;;1.70;;
3767;SDS011;1899;49.966;7.106;2022-09-09T08:58:12;5.73;;;1.40;;
3767;SDS011;1899;49.966;7.106;2022-09-09T09:03:29;5.20;;;1.80;;
3767;SDS011;1899;49.966;7.106;2022-09-09T09:11:06;2.75;;;1.40;;
3767;SDS011;1899;49.966;7.106;2022-09-09T09:16:27;5.78;;;1.80;;
3767;SDS011;1899;49.966;7.106;2022-09-09T09:18:54;9.57;;;1.77;;
3767;SDS011;1899;49.966;7.106;2022-09-09T09:26:20;5.50;;;1.50;;
3767;SDS011;1899;49.966;7.106;2022-09-09T09:28:47;3.85;;;1.52;;
3767;SDS011;1899;49.966;7.106;2022-09-09T09:31:12;4.63;;;1.60;;
3767;SDS011;1899;49.966;7.106;2022-09-09T09:36:05;6.07;;;2.00;;
3767;SDS011;1899;49.966;7.106;2022-09-09T09:38:33;6.72;;;2.00;;
3767;SDS011;1899;49.966;7.106;2022-09-09T09:40:58;7.00;;;2.10;;
3767;SDS011;1899;49.966;7.106;2022-09-09T09:43:42;6.00;;;2.00;;
3767;SDS011;1899;49.966;7.106;2022-09-09T09:46:19;6.55;;;2.03;;
3767;SDS011;1899;49.966;7.106;2022-09-09T09:48:44;5.75;;;2.20;;
3767;SDS011;1899;49.966;7.106;2022-09-09T09:51:12;5.47;;;2.60;;
3767;SDS011;1899;49.966;7.106;2022-09-09T09:53:40;5.13;;;1.90;;
3767;SDS011;1899;49.966;7.106;2022-09-09T09:56:06;5.27;;;2.00;;
3767;SDS011;1899;49.966;7.106;2022-09-09T09:58:49;4.47;;;2.10;;
3767;SDS011;1899;49.966;7.106;2022-09-09T10:01:25;4.30;;;2.10;;
3767;SDS011;1899;49.966;7.106;2022-09-09T10:03:52;4.57;;;1.70;;
3767;SDS011;1899;49.966;7.106;2022-09-09T10:06:28;4.30;;;2.00;;
3767;SDS011;1899;49.966;7.106;2022-09-09T10:08:54;5.03;;;1.93;;
3767;SDS011;1899;49.966;7.106;2022-09-09T10:11:41;6.70;;;1.70;;
3767;SDS011;1899;49.966;7.106;2022-09-09T10:19:03;7.50;;;1.77;;
3767;SDS011;1899;49.966;7.106;2022-09-09T10:27:21;4.53;;;1.43;;
3767;SDS011;1899;49.966;7.106;2022-09-09T10:35:32;4.70;;;2.07;;
3767;SDS011;1899;49.966;7.106;2022-09-09T10:46:26;2.77;;;2.07;;
3767;SDS011;1899;49.966;7.106;2022-09-09T10:49:08;7.00;;;2.10;;
3767;SDS011;1899;49.966;7.106;2022-09-09T10:51:46;3.53;;;1.47;;
3767;SDS011;1899;49.966;7.106;2022-09-09T10:56:40;4.47;;;1.73;;
3767;SDS011;1899;49.966;7.106;2022-09-09T10:59:09;4.47;;;1.47;;
3767;SDS011;1899;49.966;7.106;2022-09-09T11:01:38;9.37;;;2.00;;
3767;SDS011;1899;49.966;7.106;2022-09-09T11:04:06;4.60;;;1.30;;
3767;SDS011;1899;49.966;7.106;2022-09-09T11:06:37;2.50;;;1.13;;
3767;SDS011;1899;49.966;7.106;2022-09-09T11:09:05;3.93;;;1.20;;
3767;SDS011;1899;49.966;7.106;2022-09-09T11:11:34;4.97;;;1.50;;
3767;SDS011;1899;49.966;7.106;2022-09-09T11:16:45;5.60;;;1.20;;
3767;SDS011;1899;49.966;7.106;2022-09-09T11:21:45;6.53;;;1.40;;
3767;SDS011;1899;49.966;7.106;2022-09-09T11:24:33;4.30;;;1.20;;
3767;SDS011;1899;49.966;7.106;2022-09-09T11:40:15;3.83;;;1.10;;
3767;SDS011;1899;49.966;7.106;2022-09-09T11:42:41;3.67;;;1.20;;
3767;SDS011;1899;49.966;7.106;2022-09-09T11:45:10;1.90;;;0.90;;
3767;SDS011;1899;49.966;7.106;2022-09-09T11:47:36;3.25;;;1.20;;
3767;SDS011;1899;49.966;7.106;2022-09-09T11:50:09;2.20;;;1.00;;
3767;SDS011;1899;49.966;7.106;2022-09-09T11:52:39;2.10;;;1.00;;
3767;SDS011;1899;49.966;7.106;2022-09-09T11:55:10;4.50;;;1.42;;
3767;SDS011;1899;49.966;7.106;2022-09-09T11:57:37;2.70;;;1.15;;
3767;SDS011;1899;49.966;7.106;2022-09-09T12:00:03;2.27;;;0.90;;
3767;SDS011;1899;49.966;7.106;2022-09-09T12:02:29;3.17;;;1.20;;
3767;SDS011;1899;49.966;7.106;2022-09-09T12:05:10;1.90;;;1.00;;
3767;SDS011;1899;49.966;7.106;2022-09-09T12:12:32;3.30;;;1.20;;
3767;SDS011;1899;49.966;7.106;2022-09-09T12:17:27;3.20;;;1.05;;
3767;SDS011;1899;49.966;7.106;2022-09-09T12:25:26;3.97;;;1.20;;
3767;SDS011;1899;49.966;7.106;2022-09-09T12:30:33;2.70;;;1.00;;
3767;SDS011;1899;49.966;7.106;2022-09-09T12:33:08;3.40;;;1.30;;
3767;SDS011;1899;49.966;7.106;2022-09-09T12:35:35;4.07;;;1.17;;
3767;SDS011;1899;49.966;7.106;2022-09-09T12:38:03;2.10;;;1.05;;
3767;SDS011;1899;49.966;7.106;2022-09-09T12:40:32;2.70;;;1.10;;
3767;SDS011;1899;49.966;7.106;2022-09-09T12:43:00;2.97;;;0.90;;
3767;SDS011;1899;49.966;7.106;2022-09-09T12:45:26;2.83;;;0.90;;
3767;SDS011;1899;49.966;7.106;2022-09-09T12:47:54;2.53;;;0.93;;
3767;SDS011;1899;49.966;7.106;2022-09-09T12:50:21;2.20;;;0.90;;
3767;SDS011;1899;49.966;7.106;2022-09-09T12:52:47;2.10;;;0.90;;
3767;SDS011;1899;49.966;7.106;2022-09-09T12:55:18;1.90;;;0.90;;
3767;SDS011;1899;49.966;7.106;2022-09-09T12:57:44;2.03;;;0.90;;
3767;SDS011;1899;49.966;7.106;2022-09-09T13:00:17;2.50;;;1.00;;
3767;SDS011;1899;49.966;7.106;2022-09-09T13:02:50;1.60;;;0.80;;
3767;SDS011;1899;49.966;7.106;2022-09-09T13:05:17;1.80;;;0.80;;
3767;SDS011;1899;49.966;7.106;2022-09-09T13:07:43;2.70;;;0.70;;
3767;SDS011;1899;49.966;7.106;2022-09-09T13:10:12;2.00;;;0.80;;
3767;SDS011;1899;49.966;7.106;2022-09-09T13:12:38;1.40;;;0.70;;
3767;SDS011;1899;49.966;7.106;2022-09-09T13:15:04;2.70;;;0.90;;
3767;SDS011;1899;49.966;7.106;2022-09-09T13:17:34;2.70;;;0.90;;
3767;SDS011;1899;49.966;7.106;2022-09-09T13:22:31;1.30;;;0.80;;
3767;SDS011;1899;49.966;7.106;2022-09-09T13:25:20;2.40;;;0.90;;
3767;SDS011;1899;49.966;7.106;2022-09-09T13:32:43;2.90;;;1.27;;
3767;SDS011;1899;49.966;7.106;2022-09-09T13:35:22;2.00;;;0.90;;
3767;SDS011;1899;49.966;7.106;2022-09-09T13:37:48;1.40;;;0.80;;
3767;SDS011;1899;49.966;7.106;2022-09-09T13:40:19;1.90;;;1.10;;
3767;SDS011;1899;49.966;7.106;2022-09-09T13:42:46;2.77;;;1.20;;
3767;SDS011;1899;49.966;7.106;2022-09-09T13:45:16;3.27;;;1.20;;
3767;SDS011;1899;49.966;7.106;2022-09-09T13:47:42;3.15;;;1.00;;
3767;SDS011;1899;49.966;7.106;2022-09-09T13:50:28;3.40;;;1.00;;
3767;SDS011;1899;49.966;7.106;2022-09-09T13:52:54;2.10;;;1.20;;
3767;SDS011;1899;49.966;7.106;2022-09-09T13:55:20;2.40;;;0.82;;
3767;SDS011;1899;49.966;7.106;2022-09-09T14:00:17;2.85;;;1.17;;
3767;SDS011;1899;49.966;7.106;2022-09-09T14:02:42;3.38;;;1.00;;
3767;SDS011;1899;49.966;7.106;2022-09-09T14:05:09;4.10;;;1.40;;
3767;SDS011;1899;49.966;7.106;2022-09-09T14:07:34;10.33;;;2.27;;
3767;SDS011;1899;49.966;7.106;2022-09-09T14:09:59;3.57;;;1.70;;
3767;SDS011;1899;49.966;7.106;2022-09-09T14:12:25;9.10;;;2.43;;
3767;SDS011;1899;49.966;7.106;2022-09-09T14:14:50;9.47;;;3.03;;
3767;SDS011;1899;49.966;7.106;2022-09-09T14:17:15;2.90;;;1.60;;
3767;SDS011;1899;49.966;7.106;2022-09-09T14:19:41;2.80;;;1.60;;
3767;SDS011;1899;49.966;7.106;2022-09-09T14:22:06;3.27;;;1.60;;
3767;SDS011;1899;49.966;7.106;2022-09-09T14:24:31;12.30;;;3.20;;
3767;SDS011;1899;49.966;7.106;2022-09-09T14:26:56;10.20;;;3.10;;
3767;SDS011;1899;49.966;7.106;2022-09-09T14:29:21;11.40;;;3.30;;
3767;SDS011;1899;49.966;7.106;2022-09-09T14:31:47;4.17;;;2.20;;
3767;SDS011;1899;49.966;7.106;2022-09-09T14:34:12;5.50;;;2.90;;
3767;SDS011;1899;49.966;7.106;2022-09-09T14:36:39;6.97;;;3.50;;
3767;SDS011;1899;49.966;7.106;2022-09-09T14:39:06;7.32;;;3.47;;
3767;SDS011;1899;49.966;7.106;2022-09-09T14:41:31;5.10;;;3.30;;
3767;SDS011;1899;49.966;7.106;2022-09-09T14:43:57;5.25;;;2.70;;
3767;SDS011;1899;49.966;7.106;2022-09-09T14:46:22;3.60;;;2.30;;
3767;SDS011;1899;49.966;7.106;2022-09-09T14:48:48;8.65;;;3.05;;
3767;SDS011;1899;49.966;7.106;2022-09-09T14:51:18;5.97;;;2.40;;
3767;SDS011;1899;49.966;7.106;2022-09-09T14:53:44;2.78;;;1.60;;
3767;SDS011;1899;49.966;7.106;2022-09-09T14:56:13;3.20;;;1.50;;
3767;SDS011;1899;49.966;7.106;2022-09-09T14:58:39;4.70;;;1.70;;
3767;SDS011;1899;49.966;7.106;2022-09-09T15:01:06;3.70;;;1.88;;
3767;SDS011;1899;49.966;7.106;2022-09-09T15:03:32;5.82;;;2.00;;
3767;SDS011;1899;49.966;7.106;2022-09-09T15:05:57;2.73;;;1.90;;
3767;SDS011;1899;49.966;7.106;2022-09-09T15:08:23;4.70;;;1.75;;
3767;SDS011;1899;49.966;7.106;2022-09-09T15:10:49;4.40;;;1.97;;
3767;SDS011;1899;49.966;7.106;2022-09-09T15:13:15;3.25;;;1.70;;
3767;SDS011;1899;49.966;7.106;2022-09-09T15:15:42;2.80;;;1.60;;
3767;SDS011;1899;49.966;7.106;2022-09-09T15:18:07;4.50;;;1.53;;
3767;SDS011;1899;49.966;7.106;2022-09-09T15:20:32;2.00;;;1.53;;
3767;SDS011;1899;49.966;7.106;2022-09-09T15:22:57;3.40;;;1.70;;
3767;SDS011;1899;49.966;7.106;2022-09-09T15:25:23;4.50;;;2.27;;
3767;SDS011;1899;49.966;7.106;2022-09-09T15:27:48;4.80;;;2.40;;
3767;SDS011;1899;49.966;7.106;2022-09-09T15:30:14;3.23;;;1.60;;
3767;SDS011;1899;49.966;7.106;2022-09-09T15:32:39;2.90;;;1.40;;
3767;SDS011;1899;49.966;7.106;2022-09-09T15:35:04;2.30;;;1.80;;
3767;SDS011;1899;49.966;7.106;2022-09-09T15:37:30;2.10;;;1.80;;
3767;SDS011;1899;49.966;7.106;2022-09-09T15:39:55;3.03;;;2.15;;
3767;SDS011;1899;49.966;7.106;2022-09-09T15:42:23;3.10;;;2.20;;
3767;SDS011;1899;49.966;7.106;2022-09-09T15:44:50;4.55;;;2.40;;
3767;SDS011;1899;49.966;7.106;2022-09-09T15:47:15;4.47;;;3.00;;
3767;SDS011;1899;49.966;7.106;2022-09-09T15:49:41;4.30;;;2.40;;
3767;SDS011;1899;49.966;7.106;2022-09-09T15:52:06;3.80;;;2.90;;
3767;SDS011;1899;49.966;7.106;2022-09-09T15:54:32;5.10;;;3.10;;
3767;SDS011;1899;49.966;7.106;2022-09-09T15:56:59;4.55;;;3.00;;
3767;SDS011;1899;49.966;7.106;2022-09-09T15:59:25;6.47;;;2.80;;
3767;SDS011;1899;49.966;7.106;2022-09-09T16:01:51;6.68;;;2.13;;
3767;SDS011;1899;49.966;7.106;2022-09-09T16:04:19;2.90;;;2.40;;
3767;SDS011;1899;49.966;7.106;2022-09-09T16:06:51;4.20;;;2.60;;
3767;SDS011;1899;49.966;7.106;2022-09-09T16:09:16;2.67;;;1.90;;
3767;SDS011;1899;49.966;7.106;2022-09-09T16:11:42;5.15;;;2.65;;
3767;SDS011;1899;49.966;7.106;2022-09-09T16:14:07;5.80;;;2.40;;
3767;SDS011;1899;49.966;7.106;2022-09-09T16:16:32;4.38;;;2.20;;
3767;SDS011;1899;49.966;7.106;2022-09-09T16:19:00;5.13;;;2.20;;
3767;SDS011;1899;49.966;7.106;2022-09-09T16:21:28;3.37;;;2.50;;
3767;SDS011;1899;49.966;7.106;2022-09-09T16:23:54;6.40;;;3.00;;
3767;SDS011;1899;49.966;7.106;2022-09-09T16:26:20;10.23;;;3.20;;
3767;SDS011;1899;49.966;7.106;2022-09-09T16:28:45;3.35;;;2.00;;
3767;SDS011;1899;49.966;7.106;2022-09-09T16:31:15;4.38;;;2.80;;
3767;SDS011;1899;49.966;7.106;2022-09-09T16:33:41;5.80;;;3.10;;
3767;SDS011;1899;49.966;7.106;2022-09-09T16:36:07;4.40;;;2.45;;
3767;SDS011;1899;49.966;7.106;2022-09-09T16:38:33;3.53;;;2.60;;
3767;SDS011;1899;49.966;7.106;2022-09-09T16:40:59;3.90;;;2.38;;
3767;SDS011;1899;49.966;7.106;2022-09-09T16:43:24;5.80;;;2.20;;
3767;SDS011;1899;49.966;7.106;2022-09-09T16:45:49;3.23;;;1.97;;
3767;SDS011;1899;49.966;7.106;2022-09-09T16:48:15;4.80;;;1.83;;
3767;SDS011;1899;49.966;7.106;2022-09-09T16:50:40;3.43;;;1.80;;
3767;SDS011;1899;49.966;7.106;2022-09-09T16:53:05;4.17;;;1.73;;
3767;SDS011;1899;49.966;7.106;2022-09-09T16:55:37;3.40;;;1.70;;
3767;SDS011;1899;49.966;7.106;2022-09-09T16:58:02;1.60;;;1.40;;
3767;SDS011;1899;49.966;7.106;2022-09-09T17:00:27;5.40;;;1.87;;
3767;SDS011;1899;49.966;7.106;2022-09-09T17:02:53;2.43;;;1.40;;
3767;SDS011;1899;49.966;7.106;2022-09-09T17:05:18;4.20;;;1.47;;
3767;SDS011;1899;49.966;7.106;2022-09-09T17:07:43;3.80;;;1.47;;
3767;SDS011;1899;49.966;7.106;2022-09-09T17:10:09;2.20;;;1.20;;
3767;SDS011;1899;49.966;7.106;2022-09-09T17:12:34;4.27;;;1.60;;
3767;SDS011;1899;49.966;7.106;2022-09-09T17:15:00;2.20;;;1.20;;
3767;SDS011;1899;49.966;7.106;2022-09-09T17:17:27;2.55;;;1.40;;
3767;SDS011;1899;49.966;7.106;2022-09-09T17:19:53;2.70;;;1.43;;
3767;SDS011;1899;49.966;7.106;2022-09-09T17:22:18;1.97;;;1.40;;
3767;SDS011;1899;49.966;7.106;2022-09-09T17:24:46;2.50;;;1.60;;
3767;SDS011;1899;49.966;7.106;2022-09-09T17:27:11;3.10;;;1.73;;
3767;SDS011;1899;49.966;7.106;2022-09-09T17:29:37;1.70;;;1.60;;
3767;SDS011;1899;49.966;7.106;2022-09-09T17:32:03;5.97;;;2.00;;
3767;SDS011;1899;49.966;7.106;2022-09-09T17:34:30;6.10;;;2.00;;
3767;SDS011;1899;49.966;7.106;2022-09-09T17:36:55;4.70;;;1.88;;
3767;SDS011;1899;49.966;7.106;2022-09-09T17:39:21;3.80;;;1.50;;
3767;SDS011;1899;49.966;7.106;2022-09-09T17:41:46;3.08;;;1.75;;
3767;SDS011;1899;49.966;7.106;2022-09-09T17:44:12;2.50;;;1.70;;
3767;SDS011;1899;49.966;7.106;2022-09-09T17:46:39;3.42;;;1.40;;
3767;SDS011;1899;49.966;7.106;2022-09-09T17:49:09;2.95;;;1.30;;
3767;SDS011;1899;49.966;7.106;2022-09-09T17:51:35;3.53;;;1.60;;
3767;SDS011;1899;49.966;7.106;2022-09-09T17:54:05;2.13;;;1.42;;
3767;SDS011;1899;49.966;7.106;2022-09-09T17:56:32;3.40;;;2.10;;
3767;SDS011;1899;49.966;7.106;2022-09-09T17:58:59;3.75;;;1.50;;
3767;SDS011;1899;49.966;7.106;2022-09-09T18:01:26;2.37;;;1.80;;
3767;SDS011;1899;49.966;7.106;2022-09-09T18:03:52;1.90;;;1.30;;
3767;SDS011;1899;49.966;7.106;2022-09-09T18:06:22;2.53;;;1.20;;
3767;SDS011;1899;49.966;7.106;2022-09-09T18:08:52;1.70;;;1.20;;
3767;SDS011;1899;49.966;7.106;2022-09-09T18:11:18;2.70;;;1.25;;
3767;SDS011;1899;49.966;7.106;2022-09-09T18:13:47;2.38;;;1.20;;
3767;SDS011;1899;49.966;7.106;2022-09-09T18:16:13;2.40;;;1.30;;
3767;SDS011;1899;49.966;7.106;2022-09-09T18:18:38;2.90;;;1.40;;
3767;SDS011;1899;49.966;7.106;2022-09-09T18:21:04;2.77;;;1.20;;
3767;SDS011;1899;49.966;7.106;2022-09-09T18:23:32;1.80;;;1.10;;
3767;SDS011;1899;49.966;7.106;2022-09-09T18:25:58;2.13;;;1.17;;
3767;SDS011;1899;49.966;7.106;2022-09-09T18:28:25;2.13;;;1.20;;
3767;SDS011;1899;49.966;7.106;2022-09-09T18:30:50;2.50;;;0.80;;
3767;SDS011;1899;49.966;7.106;2022-09-09T18:33:16;1.83;;;1.10;;
3767;SDS011;1899;49.966;7.106;2022-09-09T18:35:41;2.00;;;0.87;;
3767;SDS011;1899;49.966;7.106;2022-09-09T18:38:07;1.83;;;0.80;;
3767;SDS011;1899;49.966;7.106;2022-09-09T18:40:32;1.70;;;1.00;;
3767;SDS011;1899;49.966;7.106;2022-09-09T18:42:58;2.50;;;0.90;;
3767;SDS011;1899;49.966;7.106;2022-09-09T18:45:23;1.63;;;0.90;;
3767;SDS011;1899;49.966;7.106;2022-09-09T18:47:48;1.80;;;1.20;;
3767;SDS011;1899;49.966;7.106;2022-09-09T18:50:14;2.70;;;1.00;;
3767;SDS011;1899;49.966;7.106;2022-09-09T18:52:40;2.30;;;1.20;;
3767;SDS011;1899;49.966;7.106;2022-09-09T18:55:06;2.15;;;1.00;;
3767;SDS011;1899;49.966;7.106;2022-09-09T18:57:31;3.15;;;1.00;;
3767;SDS011;1899;49.966;7.106;2022-09-09T18:59:56;4.33;;;1.50;;
3767;SDS011;1899;49.966;7.106;2022-09-09T19:02:23;3.88;;;1.60;;
3767;SDS011;1899;49.966;7.106;2022-09-09T19:04:48;1.65;;;1.40;;
3767;SDS011;1899;49.966;7.106;2022-09-09T19:07:14;4.40;;;1.77;;
3767;SDS011;1899;49.966;7.106;2022-09-09T19:09:39;5.00;;;2.20;;
3767;SDS011;1899;49.966;7.106;2022-09-09T19:12:05;1.75;;;1.65;;
3767;SDS011;1899;49.966;7.106;2022-09-09T19:14:32;3.53;;;2.15;;
3767;SDS011;1899;49.966;7.106;2022-09-09T19:16:57;3.38;;;1.83;;
3767;SDS011;1899;49.966;7.106;2022-09-09T19:19:24;2.33;;;1.90;;
3767;SDS011;1899;49.966;7.106;2022-09-09T19:21:53;2.25;;;1.85;;
3767;SDS011;1899;49.966;7.106;2022-09-09T19:24:26;2.95;;;1.77;;
3767;SDS011;1899;49.966;7.106;2022-09-09T19:26:53;5.40;;;2.00;;
3767;SDS011;1899;49.966;7.106;2022-09-09T19:29:22;2.75;;;1.67;;
3767;SDS011;1899;49.966;7.106;2022-09-09T19:31:48;3.00;;;1.80;;
3767;SDS011;1899;49.966;7.106;2022-09-09T19:34:13;3.83;;;2.28;;
3767;SDS011;1899;49.966;7.106;2022-09-09T19:36:39;2.97;;;2.00;;
3767;SDS011;1899;49.966;7.106;2022-09-09T19:39:05;4.97;;;2.20;;
3767;SDS011;1899;49.966;7.106;2022-09-09T19:41:30;5.18;;;1.70;;
3767;SDS011;1899;49.966;7.106;2022-09-09T19:43:57;3.20;;;1.70;;
3767;SDS011;1899;49.966;7.106;2022-09-09T19:46:23;6.90;;;2.38;;
3767;SDS011;1899;49.966;7.106;2022-09-09T19:48:49;4.67;;;2.40;;
3767;SDS011;1899;49.966;7.106;2022-09-09T19:51:18;2.60;;;1.53;;
3767;SDS011;1899;49.966;7.106;2022-09-09T19:53:51;4.72;;;2.00;;
3767;SDS011;1899;49.966;7.106;2022-09-09T19:56:17;4.47;;;1.85;;
3767;SDS011;1899;49.966;7.106;2022-09-09T19:58:44;3.42;;;1.65;;
